Time;durP1;ratioP1;P1;durP2;ratioP2;P2;SDS_P1;SDS_P2;PMS_P1;PMS_P2;Temp;Humidity;BMP_temperature;BMP_pressure;BME280_temperature;BME280_humidity;BME280_pressure;Samples;Min_cycle;Max_cycle;Signal;HPM_P1;HPM_P2
2021/09/29 00:12:21;;;;;;;;;;;22.10;99.90;;;;;;220070;27;41193;-74
2021/09/29 00:14:48;;;;;;;;;;;21.70;99.90;;;;;;187773;28;37547;-66
2021/09/29 00:17:15;;;;;;;;;;;21.60;99.90;;;;;;546919;28;28335;-68
2021/09/29 00:19:42;;;;;;;;;;;21.60;99.90;;;;;;934095;28;26134;-71
2021/09/29 00:22:08;;;;;;;;;;;21.50;99.90;;;;;;1193999;28;27219;-65
2021/09/29 00:24:35;;;;;;;;;;;21.40;99.90;;;;;;2399096;28;26114;-65
2021/09/29 00:27:02;;;;;;;;;;;21.40;99.90;;;;;;2232030;28;26325;-69
2021/09/29 00:29:29;;;;;;;;;;;21.30;99.90;;;;;;2213701;28;26136;-70
2021/09/29 00:31:55;;;;;;;;;;;21.30;99.90;;;;;;2637353;28;26230;-69
2021/09/29 00:34:40;;;;;;;;;;;21.20;99.90;;;;;;2937556;28;26203;-67
2021/09/29 00:37:06;;;;;;;;;;;21.20;99.90;;;;;;2898375;28;27212;-70
2021/09/29 00:39:33;;;;;;;;;;;21.10;99.90;;;;;;1095668;28;30942;-70
2021/09/29 00:42:00;;;;;;;;;;;21.00;99.90;;;;;;753638;28;28319;-71
2021/09/29 00:44:27;;;;;;;;;;;21.00;99.90;;;;;;880176;28;28159;-66
2021/09/29 00:46:53;;;;;;;;;;;20.90;99.90;;;;;;372304;28;39971;-69
2021/09/29 00:49:20;;;;;;;;;;;20.80;99.90;;;;;;181617;28;37772;-73
2021/09/29 00:51:47;;;;;;;;;;;20.70;99.90;;;;;;216324;28;42085;-72
2021/09/29 00:54:14;;;;;;;;;;;20.70;99.90;;;;;;192855;28;49767;-65
2021/09/29 00:56:41;;;;;;;;;;;20.60;99.90;;;;;;173342;28;133580;-66
2021/09/29 00:59:07;;;;;;;;;;;20.60;99.90;;;;;;184946;28;50870;-71
2021/09/29 01:01:34;;;;;;;;;;;20.50;99.90;;;;;;203080;28;38592;-67
2021/09/29 01:04:01;;;;;;;;;;;20.50;99.90;;;;;;199723;28;80185;-67
2021/09/29 01:06:35;;;;;;;;;;;20.50;99.90;;;;;;212260;28;33759;-77
2021/09/29 01:09:16;;;;;;;;;;;20.40;99.90;;;;;;710065;28;27169;-65
2021/09/29 01:11:58;;;;;;;;;;;20.40;99.90;;;;;;1127622;28;32635;-69
2021/09/29 01:14:30;;;;;;;;;;;20.30;99.90;;;;;;266437;28;94869;-69
2021/09/29 01:16:59;;;;;;;;;;;20.20;99.90;;;;;;175802;28;84313;-70
2021/09/29 01:19:35;;;;;;;;;;;20.00;99.90;;;;;;183381;28;48672;-68
2021/09/29 01:22:09;;;;;;;;;;;19.90;99.90;;;;;;200683;28;47360;-68
2021/09/29 01:24:47;;;;;;;;;;;19.80;99.90;;;;;;176738;28;50808;-69
2021/09/29 01:45:30;;;;;;;;;;;19.80;99.90;;;;;;270036;28;45648;-74
2021/09/29 01:47:57;;;;;;;;;;;20.00;99.90;;;;;;200268;28;35196;-67
2021/09/29 01:50:28;;;;;;;;;;;20.00;99.90;;;;;;172286;28;48347;-65
2021/09/29 01:52:57;;;;;;;;;;;20.20;99.90;;;;;;302667;28;34121;-67
2021/09/29 01:55:24;;;;;;;;;;;20.20;99.90;;;;;;947806;28;28456;-66
2021/09/29 01:57:52;;;;;;;;;;;20.50;99.90;;;;;;835530;28;28743;-73
2021/09/29 02:00:19;;;;;;;;;;;20.70;99.90;;;;;;977623;28;27074;-64
2021/09/29 02:02:46;;;;;;;;;;;20.70;99.90;;;;;;381092;28;51290;-66
2021/09/29 02:05:13;;;;;;;;;;;20.80;99.90;;;;;;209135;28;32300;-67
2021/09/29 02:07:41;;;;;;;;;;;20.80;99.90;;;;;;317224;28;41892;-77
2021/09/29 02:10:08;;;;;;;;;;;20.80;99.90;;;;;;170942;28;83306;-77
2021/09/29 02:12:35;;;;;;;;;;;20.80;99.90;;;;;;190080;28;36861;-77
2021/09/29 02:15:04;;;;;;;;;;;20.60;99.90;;;;;;217415;28;44639;-77
2021/09/29 02:17:31;;;;;;;;;;;20.70;99.90;;;;;;221766;28;29015;-77
2021/09/29 02:19:57;;;;;;;;;;;20.80;99.90;;;;;;276982;28;30870;-77
2021/09/29 02:22:24;;;;;;;;;;;20.60;99.90;;;;;;308692;28;48153;-78
2021/09/29 02:24:51;;;;;;;;;;;20.50;99.90;;;;;;201760;28;42486;-79
2021/09/29 02:27:18;;;;;;;;;;;20.40;99.90;;;;;;170117;28;62588;-78
2021/09/29 02:29:44;;;;;;;;;;;20.40;99.90;;;;;;162491;28;102038;-74
2021/09/29 02:32:12;;;;;;;;;;;20.30;99.90;;;;;;159523;28;52995;-73
2021/09/29 02:34:40;;;;;;;;;;;20.20;99.90;;;;;;157614;28;80571;-73
2021/09/29 02:37:06;;;;;;;;;;;20.10;99.90;;;;;;152564;28;360315;-69
2021/09/29 02:39:33;;;;;;;;;;;20.10;99.90;;;;;;147538;28;394209;-77
2021/09/29 02:42:00;;;;;;;;;;;20.10;99.90;;;;;;149502;28;238631;-74
2021/09/29 02:44:27;;;;;;;;;;;20.00;99.90;;;;;;149692;28;293979;-65
2021/09/29 02:46:54;;;;;;;;;;;19.90;99.90;;;;;;150808;28;141666;-66
2021/09/29 02:49:21;;;;;;;;;;;19.90;99.90;;;;;;150570;28;111092;-66
2021/09/29 02:51:48;;;;;;;;;;;19.90;99.90;;;;;;160652;28;132165;-66
2021/09/29 02:54:15;;;;;;;;;;;19.90;99.90;;;;;;156852;28;395928;-65
2021/09/29 02:56:41;;;;;;;;;;;;;;;;;;160089;28;53935;-67
2021/09/29 02:59:09;;;;;;;;;;;;;;;;;;157623;28;54651;-65
2021/09/29 03:01:41;;;;;;;;;;;20.10;99.90;;;;;;151303;28;423768;-66
2021/09/29 03:04:08;;;;;;;;;;;19.90;99.90;;;;;;146687;28;672543;-75
2021/09/29 03:06:35;;;;;;;;;;;19.80;99.90;;;;;;150303;28;124611;-64
2021/09/29 03:09:02;;;;;;;;;;;19.70;99.90;;;;;;165887;28;265349;-69
2021/09/29 03:11:29;;;;;;;;;;;19.60;99.90;;;;;;164307;28;73783;-70
2021/09/29 03:13:57;;;;;;;;;;;19.70;99.90;;;;;;161012;28;566951;-66
2021/09/29 03:16:24;;;;;;;;;;;19.60;99.90;;;;;;150862;28;210886;-72
2021/09/29 03:18:51;;;;;;;;;;;19.60;99.90;;;;;;167349;28;182551;-72
2021/09/29 03:21:17;;;;;;;;;;;19.50;99.90;;;;;;174126;28;56736;-70
2021/09/29 03:23:44;;;;;;;;;;;19.40;99.90;;;;;;168286;28;171674;-73
2021/09/29 03:26:11;;;;;;;;;;;19.30;99.90;;;;;;161021;28;77309;-66
2021/09/29 03:28:38;;;;;;;;;;;19.30;99.90;;;;;;165829;28;47274;-72
2021/09/29 03:31:05;;;;;;;;;;;19.30;99.90;;;;;;166171;28;68163;-66
2021/09/29 03:33:32;;;;;;;;;;;19.20;99.90;;;;;;175807;28;46705;-69
2021/09/29 03:35:59;;;;;;;;;;;19.20;99.90;;;;;;168678;28;65167;-68
2021/09/29 03:38:26;;;;;;;;;;;19.20;99.90;;;;;;166826;28;365796;-77
2021/09/29 03:40:52;;;;;;;;;;;19.10;99.90;;;;;;158212;28;72673;-70
2021/09/29 03:43:20;;;;;;;;;;;19.10;99.90;;;;;;161033;28;167193;-70
2021/09/29 03:45:47;;;;;;;;;;;19.00;99.90;;;;;;158305;28;85568;-68
2021/09/29 03:48:14;;;;;;;;;;;19.00;99.90;;;;;;171049;28;35727;-72
2021/09/29 03:50:41;;;;;;;;;;;19.00;99.90;;;;;;156150;28;429697;-75
2021/09/29 03:53:08;;;;;;;;;;;18.80;99.90;;;;;;359483;28;89457;-72
2021/09/29 03:55:34;;;;;;;;;;;18.70;99.90;;;;;;771904;28;27134;-69
2021/09/29 03:58:01;;;;;;;;;;;18.60;99.90;;;;;;1235400;28;46013;-72
2021/09/29 04:00:28;;;;;;;;;;;18.50;99.90;;;;;;751479;28;69701;-70
2021/09/29 04:02:55;;;;;;;;;;;18.40;99.90;;;;;;153311;28;301984;-67
2021/09/29 04:05:22;;;;;;;;;;;18.40;99.90;;;;;;152205;28;502720;-67
2021/09/29 07:04:32;;;;;;;;;;;18.30;99.90;;;;;;877501;27;27368;-79
2021/09/29 07:06:59;;;;;;;;;;;17.90;99.90;;;;;;1019336;28;28046;-78
2021/09/29 07:09:26;;;;;;;;;;;17.80;99.90;;;;;;1040452;28;29039;-72
2021/09/29 07:11:52;;;;;;;;;;;17.80;99.90;;;;;;1145763;28;31489;-76
2021/09/29 07:14:22;;;;;;;;;;;17.80;99.90;;;;;;1125524;28;27313;-74
2021/09/29 07:16:49;;;;;;;;;;;17.80;99.90;;;;;;878485;28;27434;-73
2021/09/29 07:19:15;;;;;;;;;;;17.80;99.90;;;;;;1229092;28;27460;-64
2021/09/29 07:21:42;;;;;;;;;;;17.80;99.90;;;;;;1331060;28;27465;-77
2021/09/29 07:24:09;;;;;;;;;;;17.80;99.90;;;;;;874854;28;26211;-77
2021/09/29 07:26:37;;;;;;;;;;;17.70;99.90;;;;;;535163;28;27224;-76
2021/09/29 07:29:04;;;;;;;;;;;17.70;99.90;;;;;;393853;28;32235;-72
2021/09/29 07:31:30;;;;;;;;;;;17.70;99.90;;;;;;285323;28;36252;-76
2021/09/29 07:33:58;;;;;;;;;;;17.70;99.90;;;;;;214312;28;47002;-76
2021/09/29 07:36:24;;;;;;;;;;;17.70;99.90;;;;;;201309;28;53836;-77
2021/09/29 07:38:51;;;;;;;;;;;17.70;99.90;;;;;;209245;28;35242;-77
2021/09/29 07:41:18;;;;;;;;;;;17.70;99.90;;;;;;219324;28;34870;-74
2021/09/29 07:43:45;;;;;;;;;;;17.70;99.90;;;;;;227899;28;37630;-76
2021/09/29 07:46:12;;;;;;;;;;;17.70;99.90;;;;;;153240;28;469954;-76
2021/09/29 07:48:38;;;;;;;;;;;17.60;99.90;;;;;;154713;28;102095;-77
2021/09/29 07:51:05;;;;;;;;;;;17.60;99.90;;;;;;153151;28;83359;-72
2021/09/29 07:53:32;;;;;;;;;;;17.60;99.90;;;;;;155051;28;151597;-65
2021/09/29 07:55:59;;;;;;;;;;;17.60;99.90;;;;;;157520;28;74104;-65
2021/09/29 09:15:48;;;;;;;;;;;17.60;99.90;;;;;;708333;28;28692;-66
2021/09/29 09:18:18;;;;;;;;;;;17.60;99.90;;;;;;483572;28;31906;-78
2021/09/29 09:21:02;;;;;;;;;;;17.60;99.90;;;;;;433018;28;41162;-78
2021/09/29 09:23:42;;;;;;;;;;;17.60;99.90;;;;;;423445;27;29065;-79
2021/09/29 09:26:22;;;;;;;;;;;17.60;99.90;;;;;;481458;28;33507;-68
2021/09/29 09:28:49;;;;;;;;;;;17.60;99.90;;;;;;648512;28;31164;-76
2021/09/29 09:31:20;;;;;;;;;;;17.60;99.90;;;;;;1081951;28;32839;-76
2021/09/29 09:33:49;;;;;;;;;;;17.60;99.90;;;;;;937286;28;27282;-73
2021/09/29 09:36:28;;;;;;;;;;;17.60;99.90;;;;;;967581;28;27253;-78
2021/09/29 09:38:55;;;;;;;;;;;17.60;99.90;;;;;;1036220;28;35171;-76
2021/09/29 09:41:23;;;;;;;;;;;17.60;99.90;;;;;;1142126;28;26146;-78
2021/09/29 09:43:57;;;;;;;;;;;17.60;99.90;;;;;;1452245;28;27121;-76
2021/09/29 09:46:24;;;;;;;;;;;17.60;99.90;;;;;;1756810;28;26264;-75
2021/09/29 09:49:00;;;;;;;;;;;17.60;99.90;;;;;;1020738;28;37033;-65
2021/09/29 09:51:27;;;;;;;;;;;17.60;99.90;;;;;;205218;28;51844;-70
2021/09/29 09:53:54;;;;;;;;;;;17.60;99.90;;;;;;304220;28;27563;-64
2021/09/29 09:56:24;;;;;;;;;;;17.60;99.90;;;;;;349206;28;30873;-65
2021/09/29 09:58:54;;;;;;;;;;;17.60;99.90;;;;;;340507;28;31938;-72
2021/09/29 10:01:21;;;;;;;;;;;17.60;99.90;;;;;;334786;28;39438;-67
2021/09/29 10:03:49;;;;;;;;;;;17.60;99.90;;;;;;321603;28;30322;-64
2021/09/29 10:06:17;;;;;;;;;;;17.60;99.90;;;;;;357806;28;29423;-71
2021/09/29 10:08:58;;;;;;;;;;;17.60;99.90;;;;;;487333;28;29739;-66
2021/09/29 10:11:35;;;;;;;;;;;17.60;99.90;;;;;;251941;28;35805;-73
2021/09/29 10:27:51;;;;;;;;;;;17.60;99.90;;;;;;261118;28;29781;-65
2021/09/29 10:30:31;;;;;;;;;;;17.70;99.90;;;;;;351432;28;40792;-64
2021/09/29 10:33:00;;;;;;;;;;;17.60;99.90;;;;;;343457;28;26693;-64
2021/09/29 10:43:20;;;;;;;;;;;17.60;99.90;;;;;;232150;28;38521;-64
2021/09/29 10:45:57;;;;;;;;;;;17.60;99.90;;;;;;211613;28;38896;-65
2021/09/29 10:48:40;;;;;;;;;;;17.60;99.90;;;;;;221374;28;37673;-65
2021/09/29 11:27:13;;;;;;;;;;;17.40;99.90;;;;;;175845;28;46265;-80
2021/09/29 11:31:24;;;;;;;;;;;17.40;99.90;;;;;;161144;28;49511;-76
2021/09/29 12:07:56;;;;;;;;;;;17.50;99.90;;;;;;166628;28;55563;-80
2021/09/29 12:12:15;;;;;;;;;;;17.40;99.90;;;;;;4912890;28;25089;-82
2021/09/29 12:14:45;;;;;;;;;;;17.40;99.90;;;;;;4983766;28;25063;-81
2021/09/29 12:17:12;;;;;;;;;;;17.50;99.90;;;;;;4993313;28;25080;-77
2021/09/29 12:19:40;;;;;;;;;;;17.50;99.90;;;;;;4988985;28;25103;-79
2021/09/29 12:22:16;;;;;;;;;;;17.50;99.90;;;;;;5029955;28;25081;-79
2021/09/29 12:24:59;;;;;;;;;;;17.50;99.90;;;;;;5020797;28;19919;-78
2021/09/29 12:30:34;;;;;;;;;;;17.40;99.90;;;;;;4907235;28;39895;-79
2021/09/29 12:33:34;;;;;;;;;;;17.40;99.90;;;;;;4979685;28;25104;-78
2021/09/29 12:36:01;;;;;;;;;;;17.40;99.90;;;;;;2667462;28;41052;-78
2021/09/29 12:38:38;;;;;;;;;;;17.40;99.90;;;;;;172145;28;42438;-80
2021/09/29 12:41:05;;;;;;;;;;;17.50;99.90;;;;;;173379;28;43057;-80
2021/09/29 12:43:32;;;;;;;;;;;17.40;99.90;;;;;;1431821;28;47852;-79
2021/09/29 12:45:59;;;;;;;;;;;17.40;99.90;;;;;;186070;28;83417;-77
2021/09/29 12:48:28;;;;;;;;;;;17.40;99.90;;;;;;249397;28;40594;-79
2021/09/29 12:50:58;;;;;;;;;;;17.40;99.90;;;;;;164930;28;42587;-78
2021/09/29 12:53:36;;;;;;;;;;;17.40;99.90;;;;;;874901;28;38013;-78
2021/09/29 12:56:07;;;;;;;;;;;17.50;99.90;;;;;;4843272;28;25125;-78
2021/09/29 12:58:34;;;;;;;;;;;17.50;99.90;;;;;;4885911;28;25060;-79
2021/09/29 13:01:01;;;;;;;;;;;17.50;99.90;;;;;;4946374;28;25073;-74
2021/09/29 13:03:28;;;;;;;;;;;17.50;99.90;;;;;;4915190;28;25132;-66
2021/09/29 13:05:55;;;;;;;;;;;17.50;99.90;;;;;;2884264;28;28522;-65
2021/09/29 13:08:22;;;;;;;;;;;17.50;99.90;;;;;;4985872;28;25081;-68
2021/09/29 13:10:48;;;;;;;;;;;17.50;99.90;;;;;;4983415;28;25070;-67
2021/09/29 13:13:16;;;;;;;;;;;17.50;99.90;;;;;;4983682;28;25067;-65
2021/09/29 13:15:45;;;;;;;;;;;17.50;99.90;;;;;;4976931;28;25100;-67
2021/09/29 13:18:21;;;;;;;;;;;17.40;99.90;;;;;;4980079;28;25097;-68
2021/09/29 13:20:56;;;;;;;;;;;17.50;99.90;;;;;;4974228;28;25140;-65
2021/09/29 13:23:29;;;;;;;;;;;17.40;99.90;;;;;;4940930;28;25065;-65
2021/09/29 13:37:03;;;;;;;;;;;17.30;99.90;;;;;;4940016;28;25057;-77
2021/09/29 13:39:29;;;;;;;;;;;17.30;99.90;;;;;;4942802;28;25084;-77
2021/09/29 13:41:56;;;;;;;;;;;17.30;99.90;;;;;;4938342;28;25063;-75
2021/09/29 13:44:25;;;;;;;;;;;17.20;99.90;;;;;;4918943;28;25112;-76
2021/09/29 13:46:52;;;;;;;;;;;17.10;99.90;;;;;;4916621;28;25055;-80
2021/09/29 13:49:21;;;;;;;;;;;17.10;99.90;;;;;;4903072;28;25074;-76
2021/09/29 13:51:51;;;;;;;;;;;17.10;99.90;;;;;;4905771;28;25078;-78
2021/09/29 13:54:20;;;;;;;;;;;17.00;99.90;;;;;;4919739;28;25154;-76
2021/09/29 13:57:11;;;;;;;;;;;17.00;99.90;;;;;;4771908;28;25071;-71
2021/09/29 13:59:58;;;;;;;;;;;17.00;99.90;;;;;;4809051;28;25114;-73
2021/09/29 14:02:48;;;;;;;;;;;16.90;99.90;;;;;;4814883;28;25092;-77
2021/09/29 14:30:04;;;;;;;;;;;16.60;99.90;;;;;;4778373;28;25093;-74
2021/09/29 14:32:45;;;;;;;;;;;16.50;99.90;;;;;;4824859;28;25094;-79
2021/09/29 14:35:11;;;;;;;;;;;16.50;99.90;;;;;;4694678;28;25144;-76
2021/09/29 14:37:38;;;;;;;;;;;16.50;99.90;;;;;;4589144;28;25054;-79
2021/09/29 14:40:05;;;;;;;;;;;16.50;99.90;;;;;;4427642;28;25057;-69
2021/09/29 14:42:32;;;;;;;;;;;16.50;99.90;;;;;;4477657;28;25053;-73
2021/09/29 14:44:58;;;;;;;;;;;16.40;99.90;;;;;;4398984;28;25187;-68
2021/09/29 14:47:25;;;;;;;;;;;16.40;99.90;;;;;;4429849;28;20868;-65
2021/09/29 14:49:52;;;;;;;;;;;16.40;99.90;;;;;;4395541;28;25086;-66
2021/09/29 14:52:18;;;;;;;;;;;16.40;99.90;;;;;;4458572;28;25109;-70
2021/09/29 14:54:45;;;;;;;;;;;16.40;99.90;;;;;;4403939;28;20839;-64
2021/09/29 14:57:12;;;;;;;;;;;16.40;99.90;;;;;;4373054;28;25165;-66
2021/09/29 14:59:44;;;;;;;;;;;16.40;99.90;;;;;;4381167;28;25070;-67
2021/09/29 15:02:11;;;;;;;;;;;16.30;99.90;;;;;;4441883;28;25077;-67
2021/09/29 15:04:38;;;;;;;;;;;16.30;99.90;;;;;;4426027;28;25070;-66
2021/09/29 15:07:05;;;;;;;;;;;16.30;99.90;;;;;;4370208;28;25113;-65
2021/09/29 15:09:31;;;;;;;;;;;16.30;99.90;;;;;;4393269;28;25050;-70
2021/09/29 15:11:58;;;;;;;;;;;16.30;99.90;;;;;;4351818;28;21334;-66
2021/09/29 15:14:42;;;;;;;;;;;16.30;99.90;;;;;;4355055;28;26147;-68
2021/09/29 15:17:13;;;;;;;;;;;16.30;99.90;;;;;;3911188;28;26154;-65
2021/09/29 15:27:52;;;;;;;;;;;16.30;99.90;;;;;;4783236;28;25085;-70
2021/09/29 15:30:28;;;;;;;;;;;16.30;99.90;;;;;;4598458;28;25114;-62
2021/09/29 15:47:02;;;;;;;;;;;16.40;99.90;;;;;;5096102;28;70607;-65
2021/09/29 15:52:51;;;;;;;;;;;16.30;99.90;;;;;;5079131;28;19977;-63
2021/09/29 15:54:58;;;;;;;;;;;16.30;99.90;;;;;;5031166;28;25093;-66
2021/09/29 15:57:57;;;;;;;;;;;16.30;99.90;;;;;;5021730;28;25090;-72
2021/09/29 16:00:42;;;;;;;;;;;16.20;99.90;;;;;;4985384;28;25068;-64
2021/09/29 16:03:20;;;;;;;;;;;16.20;99.90;;;;;;5082574;28;20336;-65
2021/09/29 16:08:43;;;;;;;;;;;16.20;99.90;;;;;;5089606;28;19944;-69
2021/09/29 16:14:37;;;;;;;;;;;16.20;99.90;;;;;;5066143;28;20047;-65
2021/09/29 16:17:16;;;;;;;;;;;16.20;99.90;;;;;;4743050;28;456363;-67
2021/09/29 20:07:30;;;;;;;;;;;15.10;99.90;;;;;;4926046;28;25071;-76
2021/09/29 20:09:58;;;;;;;;;;;15.10;99.90;;;;;;4904018;28;25063;-76
2021/09/29 20:12:28;;;;;;;;;;;15.10;99.90;;;;;;4854673;28;25088;-77
2021/09/29 20:14:55;;;;;;;;;;;15.10;99.90;;;;;;4778791;28;25061;-78
2021/09/29 20:17:22;;;;;;;;;;;15.00;99.90;;;;;;4801309;28;25083;-76
2021/09/29 20:19:48;;;;;;;;;;;15.00;99.90;;;;;;4969362;28;25128;-77
2021/09/29 20:22:15;;;;;;;;;;;15.10;99.90;;;;;;5010869;28;20311;-77
2021/09/29 20:24:42;;;;;;;;;;;15.10;99.90;;;;;;5004557;28;20005;-77
2021/09/29 20:27:08;;;;;;;;;;;15.10;99.90;;;;;;4996292;28;20375;-77
2021/09/29 20:29:35;;;;;;;;;;;15.10;99.90;;;;;;5015165;28;20238;-78
2021/09/29 20:32:02;;;;;;;;;;;15.20;99.90;;;;;;5012567;28;20363;-78
2021/09/29 20:34:39;;;;;;;;;;;15.20;99.90;;;;;;5005435;28;19938;-75
2021/09/29 20:45:15;;;;;;;;;;;15.60;99.90;;;;;;4994326;28;19932;-78
2021/09/29 20:47:43;;;;;;;;;;;15.60;99.90;;;;;;5013210;28;20419;-78
2021/09/29 20:50:10;;;;;;;;;;;15.70;99.90;;;;;;5002781;28;19929;-78
2021/09/29 20:52:37;;;;;;;;;;;15.80;99.90;;;;;;4761928;28;25143;-79
2021/09/29 20:55:06;;;;;;;;;;;15.80;99.90;;;;;;3010416;28;50357;-78
2021/09/29 21:04:37;;;;;;;;;;;15.90;99.90;;;;;;4376499;27;57792;-78
2021/09/29 21:09:49;;;;;;;;;;;16.20;99.90;;;;;;1217558;27;136152;-78
2021/09/29 21:12:17;;;;;;;;;;;16.30;99.90;;;;;;151190;28;765577;-75
2021/09/29 21:14:53;;;;;;;;;;;16.40;99.90;;;;;;145519;28;686156;-77
2021/09/29 21:20:05;;;;;;;;;;;;;;;;;;148004;28;173557;-79
2021/09/29 21:22:32;;;;;;;;;;;16.80;99.90;;;;;;155358;28;191445;-76
2021/09/29 21:24:59;;;;;;;;;;;16.80;99.90;;;;;;153999;28;340047;-68
2021/09/29 21:27:27;;;;;;;;;;;;;;;;;;144716;28;477461;-76
2021/09/29 21:29:56;;;;;;;;;;;;;;;;;;2784357;28;2205691;-75
2021/09/29 21:32:25;;;;;;;;;;;17.10;99.90;;;;;;135779;28;737588;-74
2021/09/29 21:34:57;;;;;;;;;;;17.00;99.90;;;;;;133902;28;2630335;-74
2021/09/29 21:38:00;;;;;;;;;;;17.10;99.90;;;;;;133392;28;1753248;-77
2021/09/29 23:09:56;;;;;;;;;;;20.30;99.90;;;;;;5046038;28;19909;-74
2021/09/29 23:11:58;;;;;;;;;;;20.40;99.90;;;;;;5049340;28;19962;-75
2021/09/29 23:33:25;;;;;;;;;;;21.40;99.90;;;;;;5065274;28;19967;-75
2021/09/29 23:35:52;;;;;;;;;;;21.30;99.90;;;;;;5065739;28;20003;-70
2021/09/29 23:38:19;;;;;;;;;;;21.40;99.90;;;;;;5066645;28;19911;-74
2021/09/29 23:41:03;;;;;;;;;;;21.60;99.90;;;;;;5078967;28;19916;-71
2021/09/29 23:43:30;;;;;;;;;;;21.60;99.90;;;;;;5085913;28;19953;-76
2021/09/29 23:45:57;;;;;;;;;;;21.60;99.90;;;;;;5086684;28;20528;-79
2021/09/29 23:48:24;;;;;;;;;;;21.60;99.90;;;;;;5085724;28;19918;-66
2021/09/29 23:50:52;;;;;;;;;;;21.70;99.90;;;;;;5082408;28;19917;-66
2021/09/29 23:53:18;;;;;;;;;;;21.90;99.90;;;;;;5057272;28;19915;-67
2021/09/29 23:55:45;;;;;;;;;;;21.90;99.90;;;;;;5072126;28;20377;-68
2021/09/29 23:58:12;;;;;;;;;;;21.90;99.90;;;;;;5072493;28;20003;-73
